Time;durP1;ratioP1;P1;durP2;ratioP2;P2;SDS_P1;SDS_P2;PMS_P1;PMS_P2;Temp;Humidity;BMP_temperature;BMP_pressure;BME280_temperature;BME280_humidity;BME280_pressure;Samples;Min_cycle;Max_cycle;Signal;HPM_P1;HPM_P2
2023/07/05 00:01:56;;;;;;;2.55;1.00;;;;;;;20.78;58.89;96322.63;10317744;28;20584;-30
2023/07/05 00:06:57;;;;;;;1.60;0.93;;;;;;;20.79;59.03;96338.75;10308836;28;20035;-30
2023/07/05 00:11:57;;;;;;;1.90;1.00;;;;;;;20.78;59.34;96344.69;10301087;28;20797;-31
2023/07/05 00:16:58;;;;;;;1.27;1.10;;;;;;;20.75;59.08;96337.97;10301472;28;20298;-29
2023/07/05 00:21:58;;;;;;;2.53;0.95;;;;;;;20.75;58.91;96340.50;10292442;28;20797;-30
2023/07/05 00:26:58;;;;;;;1.25;1.02;;;;;;;20.84;58.89;96370.91;10306815;28;20043;-30
2023/07/05 00:31:59;;;;;;;3.20;1.60;;;;;;;20.94;58.76;96359.75;10308827;28;20035;-30
2023/07/05 00:36:59;;;;;;;2.38;0.95;;;;;;;20.96;58.91;96352.91;10321143;28;20297;-30
2023/07/05 00:42:00;;;;;;;5.68;1.30;;;;;;;20.84;59.12;96353.09;10310396;28;20200;-30
2023/07/05 00:47:11;;;;;;;1.03;0.90;;;;;;;20.83;59.00;96366.69;10298351;28;20134;-30
2023/07/05 00:52:16;;;;;;;1.38;1.10;;;;;;;20.82;59.70;96364.97;10293203;28;20293;-30
2023/07/05 00:57:20;;;;;;;1.42;1.02;;;;;;;20.79;59.15;96367.56;10302849;28;20023;-31
2023/07/05 01:02:22;;;;;;;1.48;1.02;;;;;;;20.77;59.23;96355.72;10314152;28;20581;-31
2023/07/05 01:07:22;;;;;;;1.55;1.00;;;;;;;20.76;59.45;96362.53;10311439;28;20038;-30
2023/07/05 01:12:48;;;;;;;1.20;0.87;;;;;;;20.74;59.28;96360.88;10303689;28;20034;-30
2023/07/05 01:18:04;;;;;;;2.57;1.03;;;;;;;20.77;59.95;96358.25;10312909;28;20282;-30
2023/07/05 01:23:11;;;;;;;2.08;1.33;;;;;;;20.92;60.02;96376.75;10292532;28;20038;-30
2023/07/05 01:28:11;;;;;;;;;;;;;;;20.97;59.98;96387.69;10317829;28;20039;-30
2023/07/05 01:33:23;;;;;;;3.67;1.20;;;;;;;20.89;59.85;96392.03;10306637;28;19925;-31
2023/07/05 01:38:24;;;;;;;1.20;1.10;;;;;;;20.82;59.51;96400.59;10318944;28;20034;-30
2023/07/05 01:43:27;;;;;;;2.88;1.00;;;;;;;20.79;59.40;96390.47;10298738;28;20410;-30
2023/07/05 01:48:27;;;;;;;1.17;0.82;;;;;;;20.77;59.71;96360.81;10311382;28;20034;-29
2023/07/05 01:53:47;;;;;;;2.00;1.50;;;;;;;20.76;59.82;96367.63;10308014;28;20046;-30
2023/07/05 01:58:54;;;;;;;1.48;0.80;;;;;;;20.76;59.58;96370.16;10296368;28;20081;-30
2023/07/05 02:03:56;;;;;;;1.80;1.10;;;;;;;20.76;59.68;96366.75;10297661;28;20034;-31
2023/07/05 02:08:56;;;;;;;2.25;0.88;;;;;;;20.74;59.46;96361.72;10294509;28;20050;-31
2023/07/05 02:13:57;;;;;;;1.93;1.30;;;;;;;20.91;61.56;96358.94;10294681;28;20030;-30
2023/07/05 02:18:57;;;;;;;1.75;1.08;;;;;;;20.97;61.71;96352.03;10299307;28;20689;-31
2023/07/05 02:24:00;;;;;;;2.95;1.17;;;;;;;20.91;61.18;96364.88;10294834;28;20470;-30
2023/07/05 02:29:01;;;;;;;1.52;0.93;;;;;;;20.83;60.34;96356.50;10316974;28;20062;-30
2023/07/05 02:34:01;;;;;;;2.55;0.98;;;;;;;20.79;59.77;96359.94;10295809;28;20530;-30
2023/07/05 02:39:04;;;;;;;4.27;1.60;;;;;;;20.77;60.19;96354.03;10294505;28;20117;-29
2023/07/05 02:44:04;;;;;;;1.42;1.02;;;;;;;20.75;60.03;96343.03;10307772;28;20675;-29
2023/07/05 02:49:06;;;;;;;1.70;0.88;;;;;;;20.74;59.81;96343.91;10295459;28;20046;-30
2023/07/05 02:54:08;;;;;;;1.40;1.00;;;;;;;20.73;60.15;96351.56;10320631;28;20073;-30
2023/07/05 02:59:09;;;;;;;0.95;0.70;;;;;;;20.71;59.72;96343.94;10307692;28;20033;-30
2023/07/05 03:04:10;;;;;;;4.35;0.93;;;;;;;20.87;62.14;96352.25;10305048;28;20037;-30
2023/07/05 03:09:11;;;;;;;2.28;1.45;;;;;;;20.97;62.31;96344.41;10333317;28;20035;-30
2023/07/05 03:14:12;;;;;;;2.55;1.30;;;;;;;20.97;62.19;96348.69;10307394;28;20185;-30
2023/07/05 03:19:12;;;;;;;2.93;1.20;;;;;;;20.86;60.61;96348.84;10299947;28;20102;-30
2023/07/05 03:24:14;;;;;;;0.57;0.57;;;;;;;20.82;60.13;96356.50;10305465;28;20624;-30
2023/07/05 03:29:16;;;;;;;1.08;0.95;;;;;;;20.77;60.24;96354.03;10292530;28;20515;-30
2023/07/05 03:34:19;;;;;;;2.60;1.20;;;;;;;20.75;60.17;96368.50;10314789;28;20035;-29
2023/07/05 03:39:19;;;;;;;2.83;1.77;;;;;;;20.76;61.56;96362.53;10286431;28;20813;-30
2023/07/05 03:44:22;;;;;;;5.20;1.50;;;;;;;21.14;62.16;96359.44;10294200;28;20031;-30
2023/07/05 03:49:24;;;;;;;2.78;1.17;;;;;;;21.02;62.42;96352.81;10325723;28;20384;-30
2023/07/05 03:54:25;;;;;;;3.38;1.98;;;;;;;21.11;62.97;96362.84;10311859;28;20151;-30
2023/07/05 03:59:25;;;;;;;2.83;1.98;;;;;;;21.12;63.18;96363.69;10340113;28;20050;-30
2023/07/05 04:04:26;;;;;;;3.93;2.00;;;;;;;21.07;63.03;96361.22;10314616;28;20056;-30
2023/07/05 04:09:27;;;;;;;5.07;1.80;;;;;;;21.05;63.38;96368.03;10322331;28;20301;-30
2023/07/05 04:14:27;;;;;;;2.20;1.67;;;;;;;21.02;63.16;96378.28;10337205;28;20312;-30
2023/07/05 04:19:27;;;;;;;3.20;1.90;;;;;;;21.01;63.24;96371.50;10320336;28;20030;-30
2023/07/05 04:24:28;;;;;;;2.30;1.70;;;;;;;21.01;62.74;96374.06;10320534;28;20409;-31
2023/07/05 04:29:28;;;;;;;3.10;1.77;;;;;;;21.06;62.19;96377.34;10321956;28;20304;-31
2023/07/05 04:34:29;;;;;;;4.73;2.17;;;;;;;21.10;61.12;96386.66;10313655;28;20301;-29
2023/07/05 04:39:29;;;;;;;2.23;1.90;;;;;;;21.10;61.28;96390.88;10333834;28;20281;-29
2023/07/05 04:44:29;;;;;;;4.40;1.80;;;;;;;20.90;60.76;96393.72;10297667;28;20294;-30
2023/07/05 04:49:30;;;;;;;2.17;1.70;;;;;;;20.89;61.29;96379.31;10336178;28;20281;-30
2023/07/05 04:54:30;;;;;;;4.50;1.53;;;;;;;20.95;60.99;96386.88;10291855;28;20521;-29
2023/07/05 04:59:30;;;;;;;6.17;2.40;;;;;;;20.89;61.07;96386.94;10279859;28;20479;-30
2023/07/05 05:04:31;;;;;;;4.97;1.70;;;;;;;20.86;60.77;96397.19;10305215;28;20046;-30
2023/07/05 05:09:31;;;;;;;7.28;1.83;;;;;;;20.82;60.66;96399.75;10291298;28;20035;-30
2023/07/05 05:14:33;;;;;;;6.30;1.93;;;;;;;20.76;60.40;96394.75;10303654;28;20022;-30
2023/07/05 05:19:33;;;;;;;5.18;1.75;;;;;;;20.79;60.90;96402.38;10324977;28;20038;-30
2023/07/05 05:24:34;;;;;;;3.97;2.27;;;;;;;20.76;60.94;96395.59;10295936;28;20395;-30
2023/07/05 05:29:34;;;;;;;8.17;2.23;;;;;;;20.78;60.85;96398.97;10321266;28;20301;-30
2023/07/05 05:34:35;;;;;;;7.00;1.87;;;;;;;20.71;63.27;96405.00;10302172;28;21026;-30
2023/07/05 05:39:35;;;;;;;12.23;3.30;;;;;;;20.75;60.94;96403.25;10337872;28;20270;-29
2023/07/05 05:44:35;;;;;;;2.60;1.45;;;;;;;20.92;62.17;96406.44;10328520;28;20038;-30
2023/07/05 05:49:36;;;;;;;2.77;2.00;;;;;;;21.00;61.38;96410.56;10330028;28;20034;-30
2023/07/05 05:54:36;;;;;;;7.63;2.55;;;;;;;20.92;60.59;96409.81;10334388;28;20038;-30
2023/07/05 05:59:37;;;;;;;3.60;2.55;;;;;;;20.85;60.30;96420.91;10337815;28;20528;-31
2023/07/05 06:04:37;;;;;;;4.82;2.55;;;;;;;20.80;60.14;96412.50;10311923;28;20027;-30
2023/07/05 06:09:39;;;;;;;5.00;2.33;;;;;;;20.77;60.22;96420.19;10333409;28;20387;-30
2023/07/05 06:14:39;;;;;;;4.25;2.50;;;;;;;20.77;60.38;96414.25;10327255;28;20403;-30
2023/07/05 06:19:40;;;;;;;3.72;1.70;;;;;;;20.76;60.21;96431.22;10314288;28;20543;-30
2023/07/05 06:24:43;;;;;;;6.50;2.03;;;;;;;20.76;60.26;96451.59;10311632;28;20056;-30
2023/07/05 06:29:43;;;;;;;2.63;1.63;;;;;;;20.75;60.20;96452.44;10344653;28;20789;-30
2023/07/05 06:34:44;;;;;;;3.28;1.65;;;;;;;20.88;60.87;96471.78;10327219;28;20026;-30
2023/07/05 06:39:44;;;;;;;2.95;1.55;;;;;;;20.99;61.50;96479.28;10344363;28;20054;-30
2023/07/05 06:44:44;;;;;;;4.63;1.63;;;;;;;20.94;60.88;96461.53;10349537;28;20030;-30
2023/07/05 06:49:45;;;;;;;2.97;1.73;;;;;;;20.88;60.09;96470.97;10326499;28;20309;-30
2023/07/05 06:54:45;;;;;;;2.00;1.30;;;;;;;20.81;59.82;96487.97;10323225;28;20030;-30
2023/07/05 06:59:46;;;;;;;2.50;1.70;;;;;;;20.78;60.02;96505.81;10327567;28;20281;-30
2023/07/05 07:04:46;;;;;;;1.13;1.03;;;;;;;20.76;59.82;96517.72;10318756;28;20371;-30
2023/07/05 07:09:47;;;;;;;1.47;1.20;;;;;;;20.75;60.10;96516.06;10341514;28;20650;-30
2023/07/05 07:14:48;;;;;;;1.83;1.40;;;;;;;20.75;59.76;96510.09;10317715;28;20343;-30
2023/07/05 07:19:50;;;;;;;1.10;1.00;;;;;;;20.74;59.98;96519.47;10325978;28;20081;-30
2023/07/05 07:24:51;;;;;;;2.03;1.48;;;;;;;20.75;60.06;96531.31;10312604;28;20340;-30
2023/07/05 07:29:53;;;;;;;1.35;0.90;;;;;;;20.93;61.43;96523.50;10324550;28;20085;-30
2023/07/05 07:34:55;;;;;;;2.03;1.52;;;;;;;21.00;61.04;96535.28;10320433;28;20054;-30
2023/07/05 07:39:55;;;;;;;1.40;1.10;;;;;;;20.93;60.24;96545.53;10324298;28;20042;-30
2023/07/05 07:44:56;;;;;;;1.27;0.90;;;;;;;20.84;59.75;96548.16;10319823;28;20038;-30
2023/07/05 07:49:56;;;;;;;1.30;0.93;;;;;;;20.78;59.80;96554.16;10333376;28;20046;-32
2023/07/05 07:54:57;;;;;;;1.00;0.80;;;;;;;20.78;59.84;96556.72;10334571;28;20526;-30
2023/07/05 07:59:57;;;;;;;1.17;0.90;;;;;;;20.75;59.88;96561.84;10307885;28;20046;-30
2023/07/05 08:04:58;;;;;;;1.13;0.90;;;;;;;20.74;59.84;96572.88;10302636;28;20129;-30
2023/07/05 08:09:58;;;;;;;1.30;1.07;;;;;;;20.75;60.00;96561.00;10341511;28;20041;-30
2023/07/05 08:14:59;;;;;;;1.27;0.82;;;;;;;20.75;59.80;96572.03;10341925;28;20038;-30
2023/07/05 08:19:59;;;;;;;1.20;0.80;;;;;;;20.85;60.51;96577.84;10334537;28;20034;-30
2023/07/05 08:24:59;;;;;;;1.40;0.83;;;;;;;20.96;61.06;96586.25;10340076;28;20304;-30
2023/07/05 08:30:00;;;;;;;1.30;0.93;;;;;;;20.96;60.09;96594.69;10340928;28;20312;-30
2023/07/05 08:35:01;;;;;;;1.25;1.02;;;;;;;20.86;59.88;96598.22;10323697;28;20307;-30
2023/07/05 08:40:03;;;;;;;2.15;1.08;;;;;;;20.80;59.79;96610.13;10325102;28;20034;-30
2023/07/05 08:45:41;;;;;;;1.33;0.88;;;;;;;20.76;59.60;96619.50;10325023;28;20042;-30
2023/07/05 08:50:44;;;;;;;1.60;0.82;;;;;;;20.76;59.75;96627.16;10317219;28;20050;-30
2023/07/05 08:55:48;;;;;;;2.05;0.88;;;;;;;20.75;59.55;96627.16;10340721;28;20040;-31
2023/07/05 09:00:59;;;;;;;1.08;0.80;;;;;;;20.74;59.91;96626.31;10302331;28;20035;-30
2023/07/05 09:05:59;;;;;;;0.60;0.57;;;;;;;20.74;59.21;96631.41;10354293;28;20045;-30
2023/07/05 09:11:16;;;;;;;2.50;0.60;;;;;;;20.79;60.17;96647.44;10331356;28;20041;-30
2023/07/05 09:16:37;;;;;;;0.80;0.80;;;;;;;20.94;60.43;96644.78;10323338;28;20034;-29
2023/07/05 09:21:45;;;;;;;0.95;0.52;;;;;;;20.97;59.59;96649.84;10318249;28;20030;-30
2023/07/05 09:26:55;;;;;;;0.93;0.63;;;;;;;20.87;59.32;96643.16;10320790;28;20029;-30
2023/07/05 09:31:59;;;;;;;0.73;0.60;;;;;;;20.79;59.32;96641.53;10347153;28;20030;-30
2023/07/05 09:37:01;;;;;;;1.67;1.17;;;;;;;20.77;59.46;96656.81;10343826;28;20036;-30
2023/07/05 09:42:06;;;;;;;0.82;0.80;;;;;;;20.74;59.44;96654.31;10307487;28;20034;-30
2023/07/05 09:47:07;;;;;;;1.75;0.85;;;;;;;20.74;59.53;96656.84;10314662;28;20030;-30
2023/07/05 09:52:12;;;;;;;0.70;0.63;;;;;;;20.75;59.51;96662.75;10353973;28;20038;-30
2023/07/05 09:57:22;;;;;;;1.17;0.75;;;;;;;20.72;59.37;96668.72;10328656;28;20064;-30
2023/07/05 10:02:29;;;;;;;2.03;1.10;;;;;;;20.76;59.74;96674.63;10312511;28;20422;-31
2023/07/05 10:07:35;;;;;;;3.50;1.52;;;;;;;20.94;59.60;96669.38;10328287;28;20038;-30
2023/07/05 10:12:39;;;;;;;2.13;1.50;;;;;;;20.99;59.45;96676.09;10325009;28;20105;-31
2023/07/05 10:17:41;;;;;;;5.55;1.80;;;;;;;20.88;59.38;96685.56;10312752;28;20414;-30
2023/07/05 10:22:42;;;;;;;10.88;2.13;;;;;;;20.82;59.64;96679.66;10328622;28;20037;-30
2023/07/05 10:27:46;;;;;;;11.82;1.55;;;;;;;20.80;59.57;96682.22;10312213;28;20058;-31
2023/07/05 10:33:15;;;;;;;10.27;1.65;;;;;;;20.77;59.73;96689.88;10308526;28;20026;-29
2023/07/05 10:38:41;;;;;;;3.90;1.33;;;;;;;20.75;59.63;96663.63;10319840;28;20045;-31
2023/07/05 10:43:45;;;;;;;2.50;1.20;;;;;;;20.72;59.68;96684.00;10328624;28;20041;-30
2023/07/05 10:48:46;;;;;;;4.43;1.40;;;;;;;20.73;59.88;96684.84;10318175;28;20035;-30
2023/07/05 10:53:52;;;;;;;4.55;1.50;;;;;;;20.73;59.45;96689.94;10326674;28;20101;-30
2023/07/05 10:59:04;;;;;;;4.25;2.17;;;;;;;20.91;59.76;96689.78;10314547;28;20038;-29
2023/07/05 11:04:11;;;;;;;6.93;2.30;;;;;;;21.00;59.38;96685.47;10310046;28;20513;-31
2023/07/05 11:09:11;;;;;;;4.60;1.10;;;;;;;20.96;59.16;96688.06;10323378;28;20038;-30
2023/07/05 11:14:14;;;;;;;5.68;1.73;;;;;;;20.84;59.27;96686.44;10337304;28;20131;-31
2023/07/05 11:19:20;;;;;;;4.90;1.75;;;;;;;20.79;59.28;96685.63;10339059;28;20026;-30
2023/07/05 11:24:39;;;;;;;1.88;1.00;;;;;;;20.75;59.45;96678.91;10309971;28;20034;-30
2023/07/05 11:29:40;;;;;;;1.73;1.40;;;;;;;20.74;59.52;96687.38;10313102;28;20048;-30
2023/07/05 11:34:44;;;;;;;1.57;1.00;;;;;;;20.74;59.59;96681.44;10325128;28;20035;-31
2023/07/05 11:39:46;;;;;;;3.58;1.10;;;;;;;20.72;59.38;96685.72;10323492;28;20032;-30
2023/07/05 11:45:03;;;;;;;3.17;1.25;;;;;;;20.70;59.62;96683.16;10337791;28;20041;-31
2023/07/05 11:50:09;;;;;;;1.83;1.50;;;;;;;20.82;59.52;96679.66;10362797;28;20049;-29
2023/07/05 11:55:16;;;;;;;2.22;1.85;;;;;;;20.96;59.24;96672.78;10319695;28;20046;-30
2023/07/05 12:00:22;;;;;;;3.33;1.50;;;;;;;21.00;59.08;96679.50;10325486;28;20033;-30
2023/07/05 12:05:26;;;;;;;5.90;1.48;;;;;;;20.89;59.00;96686.41;10340150;28;20044;-30
2023/07/05 12:10:30;;;;;;;2.42;1.30;;;;;;;20.80;59.18;96672.03;10312862;28;20044;-30
2023/07/05 12:15:35;;;;;;;4.00;1.10;;;;;;;20.76;59.30;96664.44;10346419;28;20041;-29
2023/07/05 12:20:41;;;;;;;1.55;1.25;;;;;;;20.73;59.43;96672.94;10305603;28;20034;-30
2023/07/05 12:25:51;;;;;;;1.75;1.30;;;;;;;20.72;59.34;96666.19;10318490;28;20027;-31
2023/07/05 12:30:56;;;;;;;2.10;1.13;;;;;;;20.73;59.59;96665.31;10332334;28;20058;-30
2023/07/05 12:36:12;;;;;;;2.60;1.40;;;;;;;20.71;59.63;96672.13;10332183;28;20060;-30
2023/07/05 12:41:22;;;;;;;2.47;1.70;;;;;;;20.75;60.00;96667.84;10333140;28;20033;-30
2023/07/05 12:46:25;;;;;;;4.15;2.33;;;;;;;20.93;59.42;96668.56;10316155;28;20494;-30
2023/07/05 12:51:28;;;;;;;1.90;1.63;;;;;;;21.01;59.12;96673.56;10331656;28;20034;-31
2023/07/05 12:56:33;;;;;;;1.90;1.48;;;;;;;20.92;59.30;96671.97;10323005;28;20508;-30
2023/07/05 13:01:37;;;;;;;1.77;1.13;;;;;;;20.83;59.16;96666.94;10316491;28;20045;-30
2023/07/05 13:06:38;;;;;;;1.95;1.10;;;;;;;20.75;59.14;96675.50;10326867;28;20065;-30
2023/07/05 13:11:54;;;;;;;1.83;1.20;;;;;;;20.65;59.48;96669.63;10321519;28;20045;-31
2023/07/05 13:16:57;;;;;;;1.45;1.02;;;;;;;20.58;59.35;96680.75;10320089;28;20414;-31
2023/07/05 13:22:14;;;;;;;1.40;1.10;;;;;;;20.56;58.69;96687.53;10327730;28;20414;-30
2023/07/05 13:27:34;;;;;;;;;;;;;;;20.56;58.61;96674.81;10330866;28;20517;-30
2023/07/05 13:32:41;;;;;;;1.30;0.95;;;;;;;20.54;58.33;96668.91;10314867;28;19921;-30
2023/07/05 13:37:41;;;;;;;1.33;0.77;;;;;;;20.62;57.83;96668.84;10326520;28;20046;-30
2023/07/05 13:42:42;;;;;;;1.77;1.17;;;;;;;20.68;57.63;96677.25;10316875;28;20508;-30
2023/07/05 13:47:43;;;;;;;1.17;1.08;;;;;;;20.62;57.08;96677.31;10337140;28;20042;-30
2023/07/05 13:52:46;;;;;;;2.17;1.20;;;;;;;20.59;57.48;96666.31;10348504;28;20042;-29
2023/07/05 13:57:53;;;;;;;1.10;0.98;;;;;;;20.49;57.04;96674.88;10345034;28;20089;-29
2023/07/05 14:02:54;;;;;;;1.80;1.35;;;;;;;20.47;56.90;96671.53;10329457;28;20499;-30
2023/07/05 14:07:57;;;;;;;1.45;1.23;;;;;;;20.46;56.70;96670.66;10336283;28;20564;-30
2023/07/05 14:12:59;;;;;;;2.85;1.10;;;;;;;20.43;56.83;96659.66;10326934;28;20118;-31
2023/07/05 14:17:59;;;;;;;1.38;1.10;;;;;;;20.43;56.53;96650.34;10333702;28;20106;-31
2023/07/05 14:23:02;;;;;;;2.28;1.50;;;;;;;20.45;56.31;96666.44;10312449;28;20133;-29
2023/07/05 14:28:03;;;;;;;1.38;1.17;;;;;;;20.53;56.09;96654.50;10308734;28;20081;-29
2023/07/05 14:33:04;;;;;;;1.40;1.10;;;;;;;20.74;56.42;96659.41;10325404;28;20073;-30
2023/07/05 14:38:04;;;;;;;1.65;1.40;;;;;;;20.67;55.96;96657.75;10360769;28;20408;-31
2023/07/05 14:43:05;;;;;;;1.50;0.97;;;;;;;20.57;56.01;96657.84;10329901;28;20081;-30
2023/07/05 14:48:05;;;;;;;2.88;1.70;;;;;;;20.53;55.86;96657.03;10342901;28;20785;-30
2023/07/05 14:53:12;;;;;;;1.63;1.40;;;;;;;20.53;55.65;96654.50;10350128;28;20037;-29
2023/07/05 14:58:15;;;;;;;1.58;1.17;;;;;;;20.55;55.66;96650.22;10327971;28;20057;-30
2023/07/05 15:03:26;;;;;;;2.60;1.50;;;;;;;20.52;55.78;96652.81;10327673;28;20573;-30
2023/07/05 15:08:27;;;;;;;1.70;1.50;;;;;;;20.46;55.67;96649.50;10311727;28;20426;-30
2023/07/05 15:13:35;;;;;;;1.73;1.52;;;;;;;20.45;55.69;96642.72;10334259;28;20388;-30
2023/07/05 15:18:35;;;;;;;2.88;1.30;;;;;;;20.45;55.90;96637.63;10303815;28;20062;-30
2023/07/05 15:23:35;;;;;;;1.80;1.37;;;;;;;20.63;55.68;96648.47;10309002;28;20061;-29
2023/07/05 15:28:37;;;;;;;1.90;1.40;;;;;;;20.69;55.21;96647.56;10311712;28;20041;-30
2023/07/05 15:33:37;;;;;;;2.30;1.30;;;;;;;20.57;55.28;96645.97;10318364;28;20656;-29
2023/07/05 15:38:37;;;;;;;1.80;1.37;;;;;;;20.55;55.33;96668.03;10317020;28;20038;-30
2023/07/05 15:43:38;;;;;;;1.53;1.27;;;;;;;20.51;55.24;96643.50;10325725;28;20674;-29
2023/07/05 15:48:43;;;;;;;2.10;1.53;;;;;;;20.49;55.35;96644.38;10307232;28;20411;-30
2023/07/05 15:53:43;;;;;;;1.45;1.33;;;;;;;20.49;55.29;96645.22;10321121;28;20336;-30
2023/07/05 15:58:48;;;;;;;1.55;1.45;;;;;;;20.45;55.31;96652.91;10333313;28;20030;-30
2023/07/05 16:03:48;;;;;;;2.70;1.60;;;;;;;20.49;55.44;96644.38;10329258;28;20038;-30
2023/07/05 16:08:49;;;;;;;1.42;1.30;;;;;;;20.49;55.16;96645.22;10320683;28;20030;-30
2023/07/05 16:13:49;;;;;;;1.57;1.33;;;;;;;20.55;54.95;96645.16;10314225;28;20072;-30
2023/07/05 16:18:49;;;;;;;1.60;1.43;;;;;;;20.69;55.41;96643.31;10317935;28;20281;-30
2023/07/05 16:23:50;;;;;;;1.77;1.47;;;;;;;20.59;54.96;96651.06;10359991;28;21030;-30
2023/07/05 16:28:51;;;;;;;1.70;1.40;;;;;;;20.55;54.98;96645.16;10324631;28;20294;-29
2023/07/05 16:33:53;;;;;;;1.50;1.40;;;;;;;20.49;54.86;96650.31;10312764;28;20342;-30
2023/07/05 16:38:54;;;;;;;1.80;1.40;;;;;;;20.42;54.74;96647.00;10331763;28;20165;-30
2023/07/05 16:43:55;;;;;;;1.25;1.15;;;;;;;20.45;54.71;96653.72;10343688;28;20052;-29
2023/07/05 16:48:55;;;;;;;1.53;1.30;;;;;;;20.46;54.49;96650.31;10324124;28;20062;-29
2023/07/05 16:53:55;;;;;;;1.70;1.43;;;;;;;20.45;54.46;96643.53;10307786;28;20029;-29
2023/07/05 16:58:56;;;;;;;1.93;1.30;;;;;;;20.45;54.55;96642.72;10320311;28;20297;-30
2023/07/05 17:03:56;;;;;;;1.38;1.27;;;;;;;20.45;54.54;96642.72;10320602;28;20294;-30
2023/07/05 17:08:57;;;;;;;1.60;1.35;;;;;;;20.55;54.34;96650.22;10311542;28;20046;-30
2023/07/05 17:13:58;;;;;;;2.08;1.52;;;;;;;20.64;54.02;96639.13;10329471;28;20038;-31
2023/07/05 17:18:58;;;;;;;1.83;1.23;;;;;;;20.57;54.15;96647.69;10314645;28;20446;-30
2023/07/05 17:23:59;;;;;;;2.53;1.57;;;;;;;20.51;54.67;96653.69;10347445;28;20037;-30
2023/07/05 17:28:59;;;;;;;1.58;1.40;;;;;;;20.44;54.38;96652.03;10339150;28;20308;-30
2023/07/05 17:33:59;;;;;;;1.92;1.65;;;;;;;20.47;54.29;96654.53;10318287;28;20520;-29
2023/07/05 17:39:00;;;;;;;2.93;1.83;;;;;;;20.50;54.53;96656.22;10350238;28;20037;-30
2023/07/05 17:44:02;;;;;;;2.20;1.35;;;;;;;20.50;54.23;96656.22;10324163;28;20051;-29
2023/07/05 17:49:03;;;;;;;1.80;1.48;;;;;;;20.46;54.33;96655.41;10326400;28;20039;-30
2023/07/05 17:54:04;;;;;;;2.10;1.75;;;;;;;20.45;54.53;96656.25;10317321;28;20499;-31
2023/07/05 17:59:04;;;;;;;2.10;1.20;;;;;;;20.56;53.90;96657.00;10328875;28;20022;-30
2023/07/05 18:04:05;;;;;;;1.70;1.50;;;;;;;20.64;54.16;96655.22;10306419;28;20305;-30
2023/07/05 18:09:05;;;;;;;2.83;2.00;;;;;;;20.58;54.18;96659.53;10350061;28;20308;-30
2023/07/05 18:14:05;;;;;;;2.10;1.90;;;;;;;20.52;54.25;96665.53;10348987;28;20038;-30
2023/07/05 18:19:07;;;;;;;1.90;1.53;;;;;;;20.48;54.26;96663.84;10323412;28;20326;-29
2023/07/05 18:24:10;;;;;;;2.78;1.75;;;;;;;20.47;54.02;96657.09;10308399;28;20791;-31
2023/07/05 18:29:13;;;;;;;1.67;1.33;;;;;;;20.47;54.11;96652.00;10348008;28;20049;-30
2023/07/05 18:34:13;;;;;;;2.15;1.80;;;;;;;20.46;54.23;96650.31;10326372;28;20034;-30
2023/07/05 18:39:14;;;;;;;1.77;1.60;;;;;;;20.44;54.15;96657.13;10308677;28;20479;-30
2023/07/05 18:44:15;;;;;;;2.50;1.90;;;;;;;20.45;54.27;96666.44;10320550;28;20030;-30
2023/07/05 18:49:16;;;;;;;2.33;1.52;;;;;;;20.53;54.06;96669.75;10320816;28;20030;-30
2023/07/05 18:54:16;;;;;;;4.90;1.90;;;;;;;20.71;54.38;96677.22;10331787;28;20030;-30
2023/07/05 18:59:17;;;;;;;6.53;1.73;;;;;;;20.70;54.20;96680.63;10325146;28;20286;-30
2023/07/05 19:04:17;;;;;;;2.33;1.43;;;;;;;20.60;53.83;96675.63;10317577;28;20306;-30
2023/07/05 19:09:18;;;;;;;2.00;1.70;;;;;;;20.54;54.13;96685.88;10324467;28;20038;-30
2023/07/05 19:14:19;;;;;;;1.50;1.40;;;;;;;20.49;54.09;96685.91;10341155;28;20353;-30
2023/07/05 19:19:21;;;;;;;2.05;1.70;;;;;;;20.48;54.33;96689.28;10346856;28;20513;-30
2023/07/05 19:24:24;;;;;;;2.35;2.13;;;;;;;19.54;52.78;96695.00;10334996;28;20048;-30
2023/07/05 19:29:24;;;;;;;6.30;2.42;;;;;;;19.43;52.42;96703.50;10305520;28;20035;-30
2023/07/05 19:34:25;;;;;;;3.20;2.00;;;;;;;19.39;52.14;96701.81;10327600;28;20028;-29
2023/07/05 19:39:25;;;;;;;6.90;2.13;;;;;;;19.48;51.71;96709.38;10336278;28;20634;-30
2023/07/05 19:44:26;;;;;;;8.30;2.80;;;;;;;19.57;52.17;96722.91;10314965;28;20034;-30
2023/07/05 19:49:27;;;;;;;5.60;2.70;;;;;;;19.47;51.64;96730.56;10301718;28;20044;-31
2023/07/05 19:54:28;;;;;;;2.25;2.00;;;;;;;19.37;51.88;96739.06;10300370;28;20373;-31
2023/07/05 19:59:32;;;;;;;2.85;2.30;;;;;;;19.33;52.11;96742.47;10329288;28;20030;-30
2023/07/05 20:04:33;;;;;;;4.32;2.40;;;;;;;19.31;52.20;96744.13;10305115;28;20081;-30
2023/07/05 20:09:33;;;;;;;6.47;2.80;;;;;;;19.00;53.20;96748.41;10337235;28;20110;-29
2023/07/05 20:14:34;;;;;;;2.83;2.03;;;;;;;19.19;52.82;96754.34;10326357;28;20848;-30
2023/07/05 20:19:34;;;;;;;2.85;2.10;;;;;;;19.18;52.38;96757.69;10291796;28;20336;-30
2023/07/05 20:24:35;;;;;;;6.67;2.17;;;;;;;19.13;52.51;96764.47;10326056;28;20173;-29
2023/07/05 20:29:37;;;;;;;3.80;2.60;;;;;;;19.02;52.97;96750.97;10310188;28;20032;-31
2023/07/05 20:34:38;;;;;;;3.03;2.30;;;;;;;18.90;52.83;96758.56;10311000;28;20035;-29
2023/07/05 20:39:39;;;;;;;4.10;2.28;;;;;;;18.87;52.91;96763.66;10337203;28;20057;-29
2023/07/05 20:44:39;;;;;;;3.63;2.47;;;;;;;18.79;53.38;96768.75;10341299;28;20045;-30
2023/07/05 20:49:40;;;;;;;4.30;2.50;;;;;;;18.83;52.61;96772.13;10325777;28;20169;-30
2023/07/05 20:54:41;;;;;;;4.00;2.90;;;;;;;18.69;53.24;96771.28;10308102;28;20056;-30
2023/07/05 20:59:42;;;;;;;3.80;2.85;;;;;;;18.76;53.01;96775.50;10302506;28;20038;-29
2023/07/05 21:04:42;;;;;;;4.17;2.80;;;;;;;18.77;53.38;96777.19;10337308;28;20038;-30
2023/07/05 21:09:44;;;;;;;6.10;3.03;;;;;;;18.69;53.23;96781.41;10308086;28;20323;-30
2023/07/05 21:14:45;;;;;;;4.35;2.67;;;;;;;18.64;53.45;96783.09;10313897;28;20329;-30
2023/07/05 21:19:46;;;;;;;4.57;2.90;;;;;;;18.60;53.41;96781.41;10323736;28;20131;-29
2023/07/05 21:24:46;;;;;;;4.07;2.90;;;;;;;18.58;53.68;96778.03;10321989;28;20136;-29
2023/07/05 21:29:46;;;;;;;4.57;2.93;;;;;;;18.57;53.57;96773.81;10313886;28;20293;-29
2023/07/05 21:34:49;;;;;;;4.70;2.55;;;;;;;18.47;54.05;96782.25;10314193;28;20282;-30
2023/07/05 21:39:49;;;;;;;4.20;3.30;;;;;;;18.33;53.96;96789.00;10308324;28;20490;-30
2023/07/05 21:44:50;;;;;;;3.77;3.00;;;;;;;18.45;53.87;96796.59;10323488;28;20102;-29
2023/07/05 21:49:51;;;;;;;3.10;2.40;;;;;;;18.52;53.82;96794.09;10322700;28;20062;-30
2023/07/05 21:54:51;;;;;;;5.50;2.75;;;;;;;18.46;53.93;96798.31;10319311;28;20039;-29
2023/07/05 21:59:52;;;;;;;5.53;2.80;;;;;;;18.50;53.81;96800.00;10330435;28;20023;-31
2023/07/05 22:04:53;;;;;;;3.67;2.85;;;;;;;18.43;53.98;96793.25;10327812;28;20502;-31
2023/07/05 22:09:54;;;;;;;4.78;3.05;;;;;;;18.33;54.14;96786.47;10300034;28;20117;-29
2023/07/05 22:14:54;;;;;;;3.45;2.70;;;;;;;18.44;54.10;96800.00;10327872;28;20121;-29
2023/07/05 22:19:55;;;;;;;4.80;2.83;;;;;;;18.35;54.64;96800.81;10313721;28;20031;-30
2023/07/05 22:24:56;;;;;;;5.38;2.88;;;;;;;18.31;54.58;96804.19;10331757;28;20788;-29
2023/07/05 22:29:58;;;;;;;5.32;2.78;;;;;;;18.25;54.84;96803.31;10303276;28;20038;-30
2023/07/05 22:35:01;;;;;;;4.97;3.50;;;;;;;18.28;54.80;96813.44;10313377;28;20131;-30
2023/07/05 22:40:06;;;;;;;5.00;3.50;;;;;;;18.36;54.39;96816.88;10313934;28;20034;-30
2023/07/05 22:45:11;;;;;;;4.97;3.00;;;;;;;18.42;54.65;96827.03;10331479;28;20038;-29
2023/07/05 22:50:13;;;;;;;4.97;3.53;;;;;;;18.47;54.61;96827.88;10336565;28;20035;-30
2023/07/05 22:55:15;;;;;;;5.28;3.10;;;;;;;18.48;54.63;96824.50;10324155;28;20038;-30
2023/07/05 23:00:16;;;;;;;5.15;2.97;;;;;;;18.38;54.50;96820.25;10341802;28;20031;-29
2023/07/05 23:05:19;;;;;;;6.78;3.60;;;;;;;18.38;54.22;96816.03;10312596;28;20122;-29
2023/07/05 23:10:19;;;;;;;4.88;3.85;;;;;;;18.34;54.56;96829.53;10307738;28;20082;-29
2023/07/05 23:15:22;;;;;;;6.50;2.92;;;;;;;18.31;54.44;96833.75;10335583;28;20042;-30
2023/07/05 23:20:23;;;;;;;4.50;3.70;;;;;;;18.30;54.00;96827.84;10322740;28;20037;-29
2023/07/05 23:25:25;;;;;;;5.63;3.83;;;;;;;18.40;53.79;96818.59;10317503;28;20042;-29
2023/07/05 23:30:26;;;;;;;4.72;3.13;;;;;;;18.30;54.18;96824.47;10323338;28;20030;-30